Terminal Aerodrome Forecast
Issued by NWS

Home | Current Version | Previous Version | Text Only | Print | Product List | Glossary On
Versions: 1 2 3 4 5 6 7 8 9 10 11 12 13 14 15 16 17 18 19 20 21 22 23
926
FTUS43 KBIS 241130 AAE
TAFJMS
TAF AMD
KJMS 241130Z 2412/2512 01009KT 6SM BR SKC
     FM241600 01010KT P6SM SCT070
     FM250000 05009KT P6SM SCT070
     FM250600 09005KT P6SM BKN070=

USA.gov is the U.S. government's official web portal to all federal, state and local government web resources and services.